sensor_id;sensor_type;location;lat;lon;timestamp;P1;durP1;ratioP1;P2;durP2;ratioP2
69527;SDS011;57136;51.986;4.468;2022-12-07T00:00:46;7.95;;;1.10;;
69527;SDS011;57136;51.986;4.468;2022-12-07T00:03:12;6.63;;;0.95;;
69527;SDS011;57136;51.986;4.468;2022-12-07T00:05:38;7.85;;;1.15;;
69527;SDS011;57136;51.986;4.468;2022-12-07T00:08:03;4.38;;;0.70;;
69527;SDS011;57136;51.986;4.468;2022-12-07T00:10:28;2.80;;;1.00;;
69527;SDS011;57136;51.986;4.468;2022-12-07T00:12:54;2.97;;;0.90;;
69527;SDS011;57136;51.986;4.468;2022-12-07T00:15:19;3.55;;;0.80;;
69527;SDS011;57136;51.986;4.468;2022-12-07T00:17:44;3.30;;;0.80;;
69527;SDS011;57136;51.986;4.468;2022-12-07T00:20:10;3.22;;;0.65;;
69527;SDS011;57136;51.986;4.468;2022-12-07T00:22:35;1.42;;;0.60;;
69527;SDS011;57136;51.986;4.468;2022-12-07T00:25:00;5.95;;;0.70;;
69527;SDS011;57136;51.986;4.468;2022-12-07T00:27:26;2.13;;;0.60;;
69527;SDS011;57136;51.986;4.468;2022-12-07T00:29:58;5.32;;;0.82;;
69527;SDS011;57136;51.986;4.468;2022-12-07T00:32:23;4.68;;;1.05;;
69527;SDS011;57136;51.986;4.468;2022-12-07T00:34:48;8.18;;;1.05;;
69527;SDS011;57136;51.986;4.468;2022-12-07T00:37:14;7.20;;;1.02;;
69527;SDS011;57136;51.986;4.468;2022-12-07T00:39:39;3.53;;;0.50;;
69527;SDS011;57136;51.986;4.468;2022-12-07T00:42:04;6.13;;;1.15;;
69527;SDS011;57136;51.986;4.468;2022-12-07T00:44:30;3.75;;;0.55;;
69527;SDS011;57136;51.986;4.468;2022-12-07T00:46:55;2.33;;;0.32;;
69527;SDS011;57136;51.986;4.468;2022-12-07T00:49:21;0.82;;;0.55;;
69527;SDS011;57136;51.986;4.468;2022-12-07T00:51:47;1.52;;;0.50;;
69527;SDS011;57136;51.986;4.468;2022-12-07T00:54:13;2.05;;;0.52;;
69527;SDS011;57136;51.986;4.468;2022-12-07T00:56:38;1.20;;;0.35;;
69527;SDS011;57136;51.986;4.468;2022-12-07T00:59:04;3.33;;;0.50;;
69527;SDS011;57136;51.986;4.468;2022-12-07T01:01:31;1.02;;;0.40;;
69527;SDS011;57136;51.986;4.468;2022-12-07T01:03:59;0.93;;;0.40;;
69527;SDS011;57136;51.986;4.468;2022-12-07T01:06:26;3.22;;;0.60;;
69527;SDS011;57136;51.986;4.468;2022-12-07T01:08:52;4.93;;;0.68;;
69527;SDS011;57136;51.986;4.468;2022-12-07T01:11:19;2.83;;;0.90;;
69527;SDS011;57136;51.986;4.468;2022-12-07T01:13:46;2.10;;;0.65;;
69527;SDS011;57136;51.986;4.468;2022-12-07T01:16:14;3.70;;;1.05;;
69527;SDS011;57136;51.986;4.468;2022-12-07T01:18:41;1.67;;;0.40;;
69527;SDS011;57136;51.986;4.468;2022-12-07T01:21:09;3.70;;;0.75;;
69527;SDS011;57136;51.986;4.468;2022-12-07T01:23:37;1.98;;;0.60;;
69527;SDS011;57136;51.986;4.468;2022-12-07T01:26:05;1.80;;;0.60;;
69527;SDS011;57136;51.986;4.468;2022-12-07T01:28:32;2.42;;;0.50;;
69527;SDS011;57136;51.986;4.468;2022-12-07T01:30:59;2.15;;;0.77;;
69527;SDS011;57136;51.986;4.468;2022-12-07T01:33:29;0.98;;;0.60;;
69527;SDS011;57136;51.986;4.468;2022-12-07T01:36:39;1.25;;;0.50;;
69527;SDS011;57136;51.986;4.468;2022-12-07T01:38:48;1.15;;;0.43;;
69527;SDS011;57136;51.986;4.468;2022-12-07T01:41:17;3.53;;;1.02;;
69527;SDS011;57136;51.986;4.468;2022-12-07T01:46:40;2.78;;;0.57;;
69527;SDS011;57136;51.986;4.468;2022-12-07T01:49:17;2.05;;;0.80;;
69527;SDS011;57136;51.986;4.468;2022-12-07T01:51:47;2.58;;;0.95;;
69527;SDS011;57136;51.986;4.468;2022-12-07T01:54:15;4.50;;;1.33;;
69527;SDS011;57136;51.986;4.468;2022-12-07T01:56:43;1.80;;;0.90;;
69527;SDS011;57136;51.986;4.468;2022-12-07T01:59:14;1.67;;;0.57;;
69527;SDS011;57136;51.986;4.468;2022-12-07T02:01:41;2.30;;;0.60;;
69527;SDS011;57136;51.986;4.468;2022-12-07T02:04:06;6.07;;;0.70;;
69527;SDS011;57136;51.986;4.468;2022-12-07T02:06:32;3.90;;;0.90;;
69527;SDS011;57136;51.986;4.468;2022-12-07T02:08:59;1.15;;;0.57;;
69527;SDS011;57136;51.986;4.468;2022-12-07T02:11:25;7.13;;;0.77;;
69527;SDS011;57136;51.986;4.468;2022-12-07T02:13:50;2.97;;;0.50;;
69527;SDS011;57136;51.986;4.468;2022-12-07T02:16:25;5.43;;;0.63;;
69527;SDS011;57136;51.986;4.468;2022-12-07T02:19:31;4.40;;;2.23;;
69527;SDS011;57136;51.986;4.468;2022-12-07T02:27:45;1.98;;;0.80;;
69527;SDS011;57136;51.986;4.468;2022-12-07T02:30:13;8.15;;;0.98;;
69527;SDS011;57136;51.986;4.468;2022-12-07T02:32:55;2.83;;;0.75;;
69527;SDS011;57136;51.986;4.468;2022-12-07T02:38:16;4.53;;;0.80;;
69527;SDS011;57136;51.986;4.468;2022-12-07T02:40:57;1.90;;;0.40;;
69527;SDS011;57136;51.986;4.468;2022-12-07T02:44:01;5.22;;;0.50;;
69527;SDS011;57136;51.986;4.468;2022-12-07T02:46:38;1.90;;;0.70;;
69527;SDS011;57136;51.986;4.468;2022-12-07T02:49:07;4.60;;;1.00;;
69527;SDS011;57136;51.986;4.468;2022-12-07T02:51:33;1.75;;;0.82;;
69527;SDS011;57136;51.986;4.468;2022-12-07T02:54:09;1.75;;;0.60;;
69527;SDS011;57136;51.986;4.468;2022-12-07T03:10:35;1.35;;;0.55;;
69527;SDS011;57136;51.986;4.468;2022-12-07T03:13:25;3.22;;;1.05;;
69527;SDS011;57136;51.986;4.468;2022-12-07T03:18:25;4.72;;;0.75;;
69527;SDS011;57136;51.986;4.468;2022-12-07T03:20:55;2.40;;;0.65;;
69527;SDS011;57136;51.986;4.468;2022-12-07T03:23:23;1.38;;;0.40;;
69527;SDS011;57136;51.986;4.468;2022-12-07T03:25:52;0.80;;;0.45;;
69527;SDS011;57136;51.986;4.468;2022-12-07T03:28:22;4.32;;;0.65;;
69527;SDS011;57136;51.986;4.468;2022-12-07T03:31:25;7.53;;;1.77;;
69527;SDS011;57136;51.986;4.468;2022-12-07T03:36:37;3.78;;;0.50;;
69527;SDS011;57136;51.986;4.468;2022-12-07T03:41:47;5.70;;;0.70;;
69527;SDS011;57136;51.986;4.468;2022-12-07T03:44:13;4.38;;;0.70;;
69527;SDS011;57136;51.986;4.468;2022-12-07T03:49:44;2.28;;;0.50;;
69527;SDS011;57136;51.986;4.468;2022-12-07T03:54:47;4.72;;;0.90;;
69527;SDS011;57136;51.986;4.468;2022-12-07T03:57:14;3.80;;;0.40;;
69527;SDS011;57136;51.986;4.468;2022-12-07T03:59:40;2.42;;;0.90;;
69527;SDS011;57136;51.986;4.468;2022-12-07T04:02:07;2.20;;;0.40;;
69527;SDS011;57136;51.986;4.468;2022-12-07T04:04:36;1.45;;;0.47;;
69527;SDS011;57136;51.986;4.468;2022-12-07T04:07:01;4.68;;;0.60;;
69527;SDS011;57136;51.986;4.468;2022-12-07T04:09:27;8.18;;;1.48;;
69527;SDS011;57136;51.986;4.468;2022-12-07T04:11:52;3.40;;;0.50;;
69527;SDS011;57136;51.986;4.468;2022-12-07T04:14:18;2.63;;;0.50;;
69527;SDS011;57136;51.986;4.468;2022-12-07T04:16:47;3.47;;;0.50;;
69527;SDS011;57136;51.986;4.468;2022-12-07T04:19:14;3.55;;;0.60;;
69527;SDS011;57136;51.986;4.468;2022-12-07T04:21:40;3.97;;;0.85;;
69527;SDS011;57136;51.986;4.468;2022-12-07T04:24:06;1.60;;;0.40;;
69527;SDS011;57136;51.986;4.468;2022-12-07T04:26:31;1.35;;;0.40;;
69527;SDS011;57136;51.986;4.468;2022-12-07T04:28:57;1.08;;;0.43;;
69527;SDS011;57136;51.986;4.468;2022-12-07T04:31:22;4.93;;;0.45;;
69527;SDS011;57136;51.986;4.468;2022-12-07T04:33:47;3.83;;;0.60;;
69527;SDS011;57136;51.986;4.468;2022-12-07T04:36:13;0.88;;;0.43;;
69527;SDS011;57136;51.986;4.468;2022-12-07T04:38:38;5.18;;;1.00;;
69527;SDS011;57136;51.986;4.468;2022-12-07T04:41:05;6.50;;;0.90;;
69527;SDS011;57136;51.986;4.468;2022-12-07T04:43:34;4.28;;;0.63;;
69527;SDS011;57136;51.986;4.468;2022-12-07T04:46:00;3.90;;;0.52;;
69527;SDS011;57136;51.986;4.468;2022-12-07T04:48:26;4.50;;;0.93;;
69527;SDS011;57136;51.986;4.468;2022-12-07T04:50:52;4.60;;;0.73;;
69527;SDS011;57136;51.986;4.468;2022-12-07T04:53:17;4.28;;;0.60;;
69527;SDS011;57136;51.986;4.468;2022-12-07T04:55:43;2.67;;;0.60;;
69527;SDS011;57136;51.986;4.468;2022-12-07T04:58:09;5.28;;;0.70;;
69527;SDS011;57136;51.986;4.468;2022-12-07T05:00:35;1.65;;;0.60;;
69527;SDS011;57136;51.986;4.468;2022-12-07T05:03:00;2.47;;;0.77;;
69527;SDS011;57136;51.986;4.468;2022-12-07T05:05:25;1.55;;;0.60;;
69527;SDS011;57136;51.986;4.468;2022-12-07T05:07:51;1.20;;;0.45;;
69527;SDS011;57136;51.986;4.468;2022-12-07T05:10:16;1.20;;;0.60;;
69527;SDS011;57136;51.986;4.468;2022-12-07T05:12:41;10.90;;;1.08;;
69527;SDS011;57136;51.986;4.468;2022-12-07T05:15:07;4.43;;;0.75;;
69527;SDS011;57136;51.986;4.468;2022-12-07T05:17:33;6.45;;;0.60;;
69527;SDS011;57136;51.986;4.468;2022-12-07T05:19:59;5.78;;;0.73;;
69527;SDS011;57136;51.986;4.468;2022-12-07T05:22:25;7.30;;;0.80;;
69527;SDS011;57136;51.986;4.468;2022-12-07T05:24:53;4.75;;;0.95;;
69527;SDS011;57136;51.986;4.468;2022-12-07T05:27:19;2.33;;;0.90;;
69527;SDS011;57136;51.986;4.468;2022-12-07T05:29:44;4.65;;;1.00;;
69527;SDS011;57136;51.986;4.468;2022-12-07T05:32:09;1.55;;;0.93;;
69527;SDS011;57136;51.986;4.468;2022-12-07T05:34:35;1.85;;;0.90;;
69527;SDS011;57136;51.986;4.468;2022-12-07T05:37:02;3.28;;;0.80;;
69527;SDS011;57136;51.986;4.468;2022-12-07T05:39:27;1.45;;;0.60;;
69527;SDS011;57136;51.986;4.468;2022-12-07T05:41:53;4.18;;;1.00;;
69527;SDS011;57136;51.986;4.468;2022-12-07T05:44:36;7.35;;;0.80;;
69527;SDS011;57136;51.986;4.468;2022-12-07T05:47:02;5.78;;;1.00;;
69527;SDS011;57136;51.986;4.468;2022-12-07T05:49:27;2.78;;;0.80;;
69527;SDS011;57136;51.986;4.468;2022-12-07T05:51:53;2.25;;;0.80;;
69527;SDS011;57136;51.986;4.468;2022-12-07T05:54:18;4.32;;;1.00;;
69527;SDS011;57136;51.986;4.468;2022-12-07T05:56:44;1.35;;;0.80;;
69527;SDS011;57136;51.986;4.468;2022-12-07T05:59:09;2.15;;;1.02;;
69527;SDS011;57136;51.986;4.468;2022-12-07T06:04:18;3.30;;;1.00;;
69527;SDS011;57136;51.986;4.468;2022-12-07T06:06:44;2.53;;;0.88;;
69527;SDS011;57136;51.986;4.468;2022-12-07T06:09:09;1.83;;;1.00;;
69527;SDS011;57136;51.986;4.468;2022-12-07T06:11:35;5.65;;;1.00;;
69527;SDS011;57136;51.986;4.468;2022-12-07T06:14:19;2.73;;;1.17;;
69527;SDS011;57136;51.986;4.468;2022-12-07T06:16:44;2.40;;;1.25;;
69527;SDS011;57136;51.986;4.468;2022-12-07T06:19:10;10.07;;;1.63;;
69527;SDS011;57136;51.986;4.468;2022-12-07T06:21:35;1.60;;;1.10;;
69527;SDS011;57136;51.986;4.468;2022-12-07T06:24:00;5.40;;;1.20;;
69527;SDS011;57136;51.986;4.468;2022-12-07T06:26:27;2.80;;;1.05;;
69527;SDS011;57136;51.986;4.468;2022-12-07T06:28:52;5.32;;;1.48;;
69527;SDS011;57136;51.986;4.468;2022-12-07T06:31:17;5.95;;;1.70;;
69527;SDS011;57136;51.986;4.468;2022-12-07T06:33:43;3.40;;;1.30;;
69527;SDS011;57136;51.986;4.468;2022-12-07T06:36:08;3.72;;;1.15;;
69527;SDS011;57136;51.986;4.468;2022-12-07T06:38:34;2.05;;;1.40;;
69527;SDS011;57136;51.986;4.468;2022-12-07T06:41:02;2.22;;;1.10;;
69527;SDS011;57136;51.986;4.468;2022-12-07T06:43:27;4.35;;;1.25;;
69527;SDS011;57136;51.986;4.468;2022-12-07T06:45:53;2.55;;;1.30;;
69527;SDS011;57136;51.986;4.468;2022-12-07T06:48:18;3.03;;;1.17;;
69527;SDS011;57136;51.986;4.468;2022-12-07T06:50:44;6.32;;;1.98;;
69527;SDS011;57136;51.986;4.468;2022-12-07T06:53:10;4.90;;;2.00;;
69527;SDS011;57136;51.986;4.468;2022-12-07T06:55:35;5.60;;;2.40;;
69527;SDS011;57136;51.986;4.468;2022-12-07T06:58:02;5.03;;;1.65;;
69527;SDS011;57136;51.986;4.468;2022-12-07T07:00:28;10.45;;;3.10;;
69527;SDS011;57136;51.986;4.468;2022-12-07T07:02:54;7.57;;;2.72;;
69527;SDS011;57136;51.986;4.468;2022-12-07T07:05:19;7.85;;;2.60;;
69527;SDS011;57136;51.986;4.468;2022-12-07T07:07:46;8.48;;;3.00;;
69527;SDS011;57136;51.986;4.468;2022-12-07T07:10:13;8.07;;;2.75;;
69527;SDS011;57136;51.986;4.468;2022-12-07T07:12:38;5.78;;;2.80;;
69527;SDS011;57136;51.986;4.468;2022-12-07T07:15:05;7.60;;;2.20;;
69527;SDS011;57136;51.986;4.468;2022-12-07T07:17:30;5.70;;;2.45;;
69527;SDS011;57136;51.986;4.468;2022-12-07T07:19:56;6.07;;;2.38;;
69527;SDS011;57136;51.986;4.468;2022-12-07T07:22:21;6.00;;;2.67;;
69527;SDS011;57136;51.986;4.468;2022-12-07T07:24:47;4.85;;;1.95;;
69527;SDS011;57136;51.986;4.468;2022-12-07T07:27:12;5.63;;;2.10;;
69527;SDS011;57136;51.986;4.468;2022-12-07T07:29:37;10.25;;;2.50;;
69527;SDS011;57136;51.986;4.468;2022-12-07T07:32:03;5.38;;;2.10;;
69527;SDS011;57136;51.986;4.468;2022-12-07T07:34:28;6.18;;;2.45;;
69527;SDS011;57136;51.986;4.468;2022-12-07T07:36:54;5.20;;;2.42;;
69527;SDS011;57136;51.986;4.468;2022-12-07T07:39:19;7.38;;;2.50;;
69527;SDS011;57136;51.986;4.468;2022-12-07T07:41:44;10.70;;;2.70;;
69527;SDS011;57136;51.986;4.468;2022-12-07T07:44:10;5.88;;;2.95;;
69527;SDS011;57136;51.986;4.468;2022-12-07T07:46:35;8.27;;;3.50;;
69527;SDS011;57136;51.986;4.468;2022-12-07T07:49:01;2.60;;;2.05;;
69527;SDS011;57136;51.986;4.468;2022-12-07T07:51:26;4.38;;;1.40;;
69527;SDS011;57136;51.986;4.468;2022-12-07T07:53:52;6.43;;;1.42;;
69527;SDS011;57136;51.986;4.468;2022-12-07T07:56:17;2.80;;;1.00;;
69527;SDS011;57136;51.986;4.468;2022-12-07T07:58:42;4.00;;;0.90;;
69527;SDS011;57136;51.986;4.468;2022-12-07T08:01:08;2.03;;;0.60;;
69527;SDS011;57136;51.986;4.468;2022-12-07T08:03:34;7.05;;;1.33;;
69527;SDS011;57136;51.986;4.468;2022-12-07T08:06:01;2.22;;;0.68;;
69527;SDS011;57136;51.986;4.468;2022-12-07T08:08:27;11.73;;;1.02;;
69527;SDS011;57136;51.986;4.468;2022-12-07T08:10:53;9.35;;;1.25;;
69527;SDS011;57136;51.986;4.468;2022-12-07T08:13:18;11.30;;;1.35;;
69527;SDS011;57136;51.986;4.468;2022-12-07T08:15:46;2.72;;;1.13;;
69527;SDS011;57136;51.986;4.468;2022-12-07T08:18:13;3.58;;;0.95;;
69527;SDS011;57136;51.986;4.468;2022-12-07T08:20:39;5.78;;;0.93;;
69527;SDS011;57136;51.986;4.468;2022-12-07T08:23:06;6.47;;;0.85;;
69527;SDS011;57136;51.986;4.468;2022-12-07T08:25:32;3.30;;;1.10;;
69527;SDS011;57136;51.986;4.468;2022-12-07T08:28:00;6.38;;;1.00;;
69527;SDS011;57136;51.986;4.468;2022-12-07T08:30:27;8.75;;;1.27;;
69527;SDS011;57136;51.986;4.468;2022-12-07T08:32:52;7.32;;;1.50;;
69527;SDS011;57136;51.986;4.468;2022-12-07T08:35:18;5.82;;;1.48;;
69527;SDS011;57136;51.986;4.468;2022-12-07T08:37:44;4.05;;;1.50;;
69527;SDS011;57136;51.986;4.468;2022-12-07T08:40:10;3.72;;;1.73;;
69527;SDS011;57136;51.986;4.468;2022-12-07T08:42:40;4.88;;;1.70;;
69527;SDS011;57136;51.986;4.468;2022-12-07T08:45:08;6.20;;;1.80;;
69527;SDS011;57136;51.986;4.468;2022-12-07T08:47:40;6.20;;;2.08;;
69527;SDS011;57136;51.986;4.468;2022-12-07T08:50:09;10.45;;;2.03;;
69527;SDS011;57136;51.986;4.468;2022-12-07T08:52:36;5.10;;;1.88;;
69527;SDS011;57136;51.986;4.468;2022-12-07T08:55:02;5.90;;;2.20;;
69527;SDS011;57136;51.986;4.468;2022-12-07T08:57:29;5.55;;;2.10;;
69527;SDS011;57136;51.986;4.468;2022-12-07T08:59:59;8.00;;;2.78;;
69527;SDS011;57136;51.986;4.468;2022-12-07T09:02:25;4.32;;;2.75;;
69527;SDS011;57136;51.986;4.468;2022-12-07T09:04:50;16.23;;;4.13;;
69527;SDS011;57136;51.986;4.468;2022-12-07T09:07:16;13.20;;;5.20;;
69527;SDS011;57136;51.986;4.468;2022-12-07T09:09:41;20.23;;;6.28;;
69527;SDS011;57136;51.986;4.468;2022-12-07T09:12:06;12.63;;;6.13;;
69527;SDS011;57136;51.986;4.468;2022-12-07T09:14:32;11.90;;;6.38;;
69527;SDS011;57136;51.986;4.468;2022-12-07T09:17:11;11.93;;;5.95;;
69527;SDS011;57136;51.986;4.468;2022-12-07T09:19:37;9.60;;;5.07;;
69527;SDS011;57136;51.986;4.468;2022-12-07T09:22:03;11.57;;;5.57;;
69527;SDS011;57136;51.986;4.468;2022-12-07T09:24:30;13.25;;;6.15;;
69527;SDS011;57136;51.986;4.468;2022-12-07T09:26:56;16.83;;;6.20;;
69527;SDS011;57136;51.986;4.468;2022-12-07T09:29:22;13.43;;;6.47;;
69527;SDS011;57136;51.986;4.468;2022-12-07T09:31:47;15.02;;;6.28;;
69527;SDS011;57136;51.986;4.468;2022-12-07T09:34:12;17.02;;;6.20;;
69527;SDS011;57136;51.986;4.468;2022-12-07T09:36:38;17.55;;;6.80;;
69527;SDS011;57136;51.986;4.468;2022-12-07T09:39:03;15.02;;;6.47;;
69527;SDS011;57136;51.986;4.468;2022-12-07T09:41:30;13.82;;;6.38;;
69527;SDS011;57136;51.986;4.468;2022-12-07T09:43:58;15.25;;;5.32;;
69527;SDS011;57136;51.986;4.468;2022-12-07T09:46:29;12.50;;;5.35;;
69527;SDS011;57136;51.986;4.468;2022-12-07T09:49:00;14.15;;;4.30;;
69527;SDS011;57136;51.986;4.468;2022-12-07T09:51:26;11.48;;;4.78;;
69527;SDS011;57136;51.986;4.468;2022-12-07T09:53:52;8.25;;;3.65;;
69527;SDS011;57136;51.986;4.468;2022-12-07T09:56:19;8.50;;;4.13;;
69527;SDS011;57136;51.986;4.468;2022-12-07T09:58:46;11.48;;;4.32;;
69527;SDS011;57136;51.986;4.468;2022-12-07T10:01:17;12.15;;;3.83;;
69527;SDS011;57136;51.986;4.468;2022-12-07T10:03:51;9.27;;;3.55;;
69527;SDS011;57136;51.986;4.468;2022-12-07T10:06:19;7.45;;;3.38;;
69527;SDS011;57136;51.986;4.468;2022-12-07T10:08:45;6.72;;;3.13;;
69527;SDS011;57136;51.986;4.468;2022-12-07T10:11:11;8.27;;;2.70;;
69527;SDS011;57136;51.986;4.468;2022-12-07T10:16:03;5.97;;;2.20;;
69527;SDS011;57136;51.986;4.468;2022-12-07T10:18:33;5.15;;;2.28;;
69527;SDS011;57136;51.986;4.468;2022-12-07T10:21:04;5.85;;;2.40;;
69527;SDS011;57136;51.986;4.468;2022-12-07T10:23:32;4.88;;;2.28;;
69527;SDS011;57136;51.986;4.468;2022-12-07T10:25:58;7.90;;;2.30;;
69527;SDS011;57136;51.986;4.468;2022-12-07T10:28:27;6.43;;;2.30;;
69527;SDS011;57136;51.986;4.468;2022-12-07T10:31:01;4.32;;;2.30;;
69527;SDS011;57136;51.986;4.468;2022-12-07T10:33:50;7.15;;;2.38;;
69527;SDS011;57136;51.986;4.468;2022-12-07T10:36:26;6.03;;;2.45;;
69527;SDS011;57136;51.986;4.468;2022-12-07T10:39:00;6.30;;;2.10;;
69527;SDS011;57136;51.986;4.468;2022-12-07T10:43:52;4.93;;;2.00;;
69527;SDS011;57136;51.986;4.468;2022-12-07T11:06:41;3.15;;;0.80;;
69527;SDS011;57136;51.986;4.468;2022-12-07T11:15:22;3.55;;;1.08;;
69527;SDS011;57136;51.986;4.468;2022-12-07T11:18:03;3.92;;;0.88;;
69527;SDS011;57136;51.986;4.468;2022-12-07T11:20:44;3.50;;;0.68;;
69527;SDS011;57136;51.986;4.468;2022-12-07T11:23:29;3.88;;;0.70;;
69527;SDS011;57136;51.986;4.468;2022-12-07T11:36:29;5.28;;;0.82;;
69527;SDS011;57136;51.986;4.468;2022-12-07T11:39:03;6.85;;;0.98;;
69527;SDS011;57136;51.986;4.468;2022-12-07T11:41:36;2.00;;;0.43;;
69527;SDS011;57136;51.986;4.468;2022-12-07T11:58:44;4.32;;;1.00;;
69527;SDS011;57136;51.986;4.468;2022-12-07T12:01:29;2.85;;;0.55;;
69527;SDS011;57136;51.986;4.468;2022-12-07T12:06:33;5.68;;;0.65;;
69527;SDS011;57136;51.986;4.468;2022-12-07T12:15:16;4.65;;;0.75;;
69527;SDS011;57136;51.986;4.468;2022-12-07T12:23:09;2.38;;;0.60;;
69527;SDS011;57136;51.986;4.468;2022-12-07T12:25:39;4.32;;;0.80;;
69527;SDS011;57136;51.986;4.468;2022-12-07T12:28:18;6.25;;;1.00;;
69527;SDS011;57136;51.986;4.468;2022-12-07T12:31:12;6.10;;;0.90;;
69527;SDS011;57136;51.986;4.468;2022-12-07T12:33:42;5.85;;;0.77;;
69527;SDS011;57136;51.986;4.468;2022-12-07T12:36:25;4.90;;;0.60;;
69527;SDS011;57136;51.986;4.468;2022-12-07T12:47:02;1.48;;;0.65;;
69527;SDS011;57136;51.986;4.468;2022-12-07T12:49:34;3.03;;;0.60;;
69527;SDS011;57136;51.986;4.468;2022-12-07T12:55:12;3.25;;;0.75;;
69527;SDS011;57136;51.986;4.468;2022-12-07T12:57:39;3.05;;;0.50;;
69527;SDS011;57136;51.986;4.468;2022-12-07T13:00:18;0.75;;;0.45;;
69527;SDS011;57136;51.986;4.468;2022-12-07T13:21:01;3.05;;;0.32;;
69527;SDS011;57136;51.986;4.468;2022-12-07T13:23:32;3.58;;;0.32;;
69527;SDS011;57136;51.986;4.468;2022-12-07T13:26:18;2.00;;;0.47;;
69527;SDS011;57136;51.986;4.468;2022-12-07T13:33:57;5.03;;;0.50;;
69527;SDS011;57136;51.986;4.468;2022-12-07T13:36:28;0.40;;;0.28;;
69527;SDS011;57136;51.986;4.468;2022-12-07T13:39:01;3.78;;;0.70;;
69527;SDS011;57136;51.986;4.468;2022-12-07T13:41:42;0.93;;;0.25;;
69527;SDS011;57136;51.986;4.468;2022-12-07T13:44:15;1.45;;;0.40;;
69527;SDS011;57136;51.986;4.468;2022-12-07T13:49:26;0.57;;;0.30;;
69527;SDS011;57136;51.986;4.468;2022-12-07T13:51:54;7.82;;;0.80;;
69527;SDS011;57136;51.986;4.468;2022-12-07T13:54:31;3.50;;;0.25;;
69527;SDS011;57136;51.986;4.468;2022-12-07T13:56:57;1.42;;;0.50;;
69527;SDS011;57136;51.986;4.468;2022-12-07T13:59:23;1.65;;;0.32;;
69527;SDS011;57136;51.986;4.468;2022-12-07T14:01:50;3.25;;;0.98;;
69527;SDS011;57136;51.986;4.468;2022-12-07T14:06:54;2.92;;;1.10;;
69527;SDS011;57136;51.986;4.468;2022-12-07T14:09:21;0.80;;;0.52;;
69527;SDS011;57136;51.986;4.468;2022-12-07T14:11:49;2.45;;;0.50;;
69527;SDS011;57136;51.986;4.468;2022-12-07T14:14:18;2.65;;;0.30;;
69527;SDS011;57136;51.986;4.468;2022-12-07T14:17:15;2.25;;;0.47;;
69527;SDS011;57136;51.986;4.468;2022-12-07T14:22:33;3.50;;;0.60;;
69527;SDS011;57136;51.986;4.468;2022-12-07T14:25:01;5.43;;;1.38;;
69527;SDS011;57136;51.986;4.468;2022-12-07T14:27:47;4.25;;;0.73;;
69527;SDS011;57136;51.986;4.468;2022-12-07T14:30:27;3.35;;;0.70;;
69527;SDS011;57136;51.986;4.468;2022-12-07T14:32:55;2.70;;;0.60;;
69527;SDS011;57136;51.986;4.468;2022-12-07T14:35:23;3.33;;;1.05;;
69527;SDS011;57136;51.986;4.468;2022-12-07T14:37:49;0.93;;;0.60;;
69527;SDS011;57136;51.986;4.468;2022-12-07T14:40:20;3.30;;;0.73;;
69527;SDS011;57136;51.986;4.468;2022-12-07T14:42:51;4.78;;;0.80;;
69527;SDS011;57136;51.986;4.468;2022-12-07T14:45:26;2.53;;;0.57;;
69527;SDS011;57136;51.986;4.468;2022-12-07T14:47:52;4.05;;;0.85;;
69527;SDS011;57136;51.986;4.468;2022-12-07T14:50:18;9.95;;;0.90;;
69527;SDS011;57136;51.986;4.468;2022-12-07T14:52:46;4.57;;;0.90;;
69527;SDS011;57136;51.986;4.468;2022-12-07T14:57:54;5.53;;;0.90;;
69527;SDS011;57136;51.986;4.468;2022-12-07T15:00:20;5.88;;;1.08;;
69527;SDS011;57136;51.986;4.468;2022-12-07T15:02:47;2.15;;;0.57;;
69527;SDS011;57136;51.986;4.468;2022-12-07T15:05:14;4.25;;;0.90;;
69527;SDS011;57136;51.986;4.468;2022-12-07T15:07:39;4.45;;;0.90;;
69527;SDS011;57136;51.986;4.468;2022-12-07T15:10:06;2.45;;;0.70;;
69527;SDS011;57136;51.986;4.468;2022-12-07T15:12:38;2.25;;;0.52;;
69527;SDS011;57136;51.986;4.468;2022-12-07T15:15:03;4.72;;;0.75;;
69527;SDS011;57136;51.986;4.468;2022-12-07T15:17:29;4.25;;;0.95;;
69527;SDS011;57136;51.986;4.468;2022-12-07T15:19:54;5.63;;;1.65;;
69527;SDS011;57136;51.986;4.468;2022-12-07T15:22:20;3.08;;;0.98;;
69527;SDS011;57136;51.986;4.468;2022-12-07T15:24:46;4.10;;;0.73;;
69527;SDS011;57136;51.986;4.468;2022-12-07T15:27:11;1.42;;;0.80;;
69527;SDS011;57136;51.986;4.468;2022-12-07T15:29:36;4.18;;;1.08;;
69527;SDS011;57136;51.986;4.468;2022-12-07T15:32:02;6.40;;;1.58;;
69527;SDS011;57136;51.986;4.468;2022-12-07T15:34:27;6.85;;;2.05;;
69527;SDS011;57136;51.986;4.468;2022-12-07T15:36:53;4.85;;;1.50;;
69527;SDS011;57136;51.986;4.468;2022-12-07T15:39:19;10.25;;;1.50;;
69527;SDS011;57136;51.986;4.468;2022-12-07T15:41:44;6.57;;;1.92;;
69527;SDS011;57136;51.986;4.468;2022-12-07T15:44:11;6.65;;;1.55;;
69527;SDS011;57136;51.986;4.468;2022-12-07T15:46:56;5.10;;;1.75;;
69527;SDS011;57136;51.986;4.468;2022-12-07T15:49:21;5.57;;;1.70;;
69527;SDS011;57136;51.986;4.468;2022-12-07T15:51:46;11.45;;;1.40;;
69527;SDS011;57136;51.986;4.468;2022-12-07T15:54:23;4.28;;;1.20;;
69527;SDS011;57136;51.986;4.468;2022-12-07T15:56:49;6.72;;;1.50;;
69527;SDS011;57136;51.986;4.468;2022-12-07T15:59:15;3.80;;;1.00;;
69527;SDS011;57136;51.986;4.468;2022-12-07T16:01:41;10.23;;;1.70;;
69527;SDS011;57136;51.986;4.468;2022-12-07T16:04:06;9.00;;;1.70;;
69527;SDS011;57136;51.986;4.468;2022-12-07T16:06:32;4.70;;;1.52;;
69527;SDS011;57136;51.986;4.468;2022-12-07T16:08:57;6.28;;;1.67;;
69527;SDS011;57136;51.986;4.468;2022-12-07T16:11:22;6.43;;;2.40;;
69527;SDS011;57136;51.986;4.468;2022-12-07T16:13:48;2.47;;;1.20;;
69527;SDS011;57136;51.986;4.468;2022-12-07T16:16:15;5.90;;;1.30;;
69527;SDS011;57136;51.986;4.468;2022-12-07T16:18:42;3.85;;;1.30;;
69527;SDS011;57136;51.986;4.468;2022-12-07T16:23:39;3.42;;;1.77;;
69527;SDS011;57136;51.986;4.468;2022-12-07T16:26:19;4.00;;;1.13;;
69527;SDS011;57136;51.986;4.468;2022-12-07T16:28:48;4.72;;;1.30;;
69527;SDS011;57136;51.986;4.468;2022-12-07T16:31:18;5.82;;;1.17;;
69527;SDS011;57136;51.986;4.468;2022-12-07T16:33:45;2.45;;;0.88;;
69527;SDS011;57136;51.986;4.468;2022-12-07T16:36:12;6.72;;;1.08;;
69527;SDS011;57136;51.986;4.468;2022-12-07T16:38:40;4.63;;;1.25;;
69527;SDS011;57136;51.986;4.468;2022-12-07T16:41:06;5.45;;;0.80;;
69527;SDS011;57136;51.986;4.468;2022-12-07T16:43:32;3.15;;;0.70;;
69527;SDS011;57136;51.986;4.468;2022-12-07T16:45:58;3.20;;;1.25;;
69527;SDS011;57136;51.986;4.468;2022-12-07T16:48:23;2.75;;;0.88;;
69527;SDS011;57136;51.986;4.468;2022-12-07T16:50:48;7.55;;;1.40;;
69527;SDS011;57136;51.986;4.468;2022-12-07T16:53:14;6.32;;;1.40;;
69527;SDS011;57136;51.986;4.468;2022-12-07T16:55:41;2.10;;;0.95;;
69527;SDS011;57136;51.986;4.468;2022-12-07T16:58:08;4.22;;;1.25;;
69527;SDS011;57136;51.986;4.468;2022-12-07T17:00:35;6.10;;;1.60;;
69527;SDS011;57136;51.986;4.468;2022-12-07T17:03:02;6.80;;;2.00;;
69527;SDS011;57136;51.986;4.468;2022-12-07T17:05:28;5.13;;;1.40;;
69527;SDS011;57136;51.986;4.468;2022-12-07T17:07:54;3.17;;;1.52;;
69527;SDS011;57136;51.986;4.468;2022-12-07T17:10:21;6.10;;;2.17;;
69527;SDS011;57136;51.986;4.468;2022-12-07T17:12:47;6.68;;;1.75;;
69527;SDS011;57136;51.986;4.468;2022-12-07T17:15:12;8.35;;;2.55;;
69527;SDS011;57136;51.986;4.468;2022-12-07T17:17:46;3.92;;;2.47;;
69527;SDS011;57136;51.986;4.468;2022-12-07T17:20:17;7.10;;;2.10;;
69527;SDS011;57136;51.986;4.468;2022-12-07T17:22:43;8.35;;;2.30;;
69527;SDS011;57136;51.986;4.468;2022-12-07T17:25:09;7.90;;;2.05;;
69527;SDS011;57136;51.986;4.468;2022-12-07T17:27:35;4.80;;;1.98;;
69527;SDS011;57136;51.986;4.468;2022-12-07T17:30:00;7.18;;;2.00;;
69527;SDS011;57136;51.986;4.468;2022-12-07T17:32:26;8.68;;;2.17;;